Tropical Cyclones
[Index]
Main Index Home Page Stock Weather Photos Extreme Storms Discussion Storm News and Storm Chasing Reports Tropical Cyclones / Hurricanes / Typhoons Weather Data and Links Wild Fires / Bushfires Weather Observation Techniques Weather Picture Catalogue Tornado Pictures and Reports Stock Video Footage and DVDs for sale
Season 1980-1981 Tropical Cyclone KLARA Track Map
Season 1980-1981 Summaries: [BoM-AU] [JTWC-AU] [JTWC-SIO] [JTWC-SPAC] [JTWC-SH]
<<- Previous TC | JTWC 1980-1981 Season | Next TC ->>

click for intensity scale information  Lat/long Grid: Show Hide

 Date Labels: Show Hide

Joint Typhoon Warning Centre Cyclone Data

Name: KLARA

28 Mar 1981 00:00 UTC to 06 Apr 1981 00:00 UTC

    date/time    lat    long     hPa   cat  kts
1981-03-28 00    6.6    56.9                  20          
1981-03-28 06    7.1    56.8                  20          
1981-03-28 12    7.6    56.8                  20          
1981-03-28 18    8.2    56.8                  20          
1981-03-29 00    8.8    56.8                  20          
1981-03-29 06    9.5    56.5                  20          
1981-03-29 12   10.1    56.2                  25          
1981-03-29 18   10.7    55.8                  25          
1981-03-30 00   11.2    55.5                  25          
1981-03-30 06   11.8    55.3                  30          
1981-03-30 12   12.4    55.2                  30          
1981-03-30 18   12.9    55.1                  30          
1981-03-31 00   13.4    55.0                  30          
1981-03-31 06   13.8    54.9                  30          
1981-03-31 12   14.2    54.8                  30          
1981-03-31 18   14.6    54.6                  30          
1981-04-01 00   15.0    54.3                  30          
1981-04-01 06   15.3    54.0                  30          
1981-04-01 12   15.6    53.7                  35          
1981-04-01 18   15.9    53.2                  35          
1981-04-02 00   16.2    52.5                  35          
1981-04-02 06   16.6    51.7            1     40          
1981-04-02 12   17.1    50.9            1     40          
1981-04-02 18   17.8    50.1            1     40          
1981-04-03 00   18.7    49.4                  35          
1981-04-03 06   19.9    48.9                  35          
1981-04-03 12   21.2    48.7                  35          
1981-04-03 18   22.7    48.7                  35          
1981-04-04 00   24.0    49.2                  35          
1981-04-04 06   24.7    50.1                  35          
1981-04-04 12   25.0    51.0                  30          
1981-04-04 18   25.2    51.9                  30          
1981-04-05 00   25.5    52.8                  25          
1981-04-05 06   26.1    53.5                  25          
1981-04-05 12   26.8    53.9                  20          
1981-04-05 18   27.4    54.2                  20          
1981-04-06 00   28.1    54.2                  20          
Winds are 1-min average.

Tropical cyclone tracks developed by Michael Bath using data from the Joint Typhoon Warning Centre Best Tracks and Google Maps.


[Australian Severe Weather index] [Copyright Notice] [Email Contacts] [Search This Site] [Privacy Policy]
Document: tropical_cyclone_klara.htm Updated: 18 September 2016